createdAt,value
2023-02-28T00:00:19.704Z,73438.75
2023-02-28T00:00:52.266Z,73440.75
2023-02-28T00:01:30.274Z,73440.75
2023-02-28T00:02:02.835Z,73446.75
2023-02-28T00:02:35.224Z,73440.75
2023-02-28T00:03:10.140Z,73440.75
2023-02-28T00:03:42.502Z,73440.75
2023-02-28T00:04:14.802Z,73446.75
2023-02-28T00:05:02.191Z,73446.75
2023-02-28T00:05:35.104Z,73452.72
2023-02-28T00:06:11.484Z,73452.72
2023-02-28T00:06:44.122Z,73448.75
2023-02-28T00:07:16.370Z,73460.72
2023-02-28T00:07:52.448Z,73456.72
2023-02-28T00:08:24.725Z,73460.72
2023-02-28T00:08:59.895Z,73464.72
2023-02-28T00:09:32.257Z,73472.69
2023-02-28T00:10:05.669Z,73462.72
2023-02-28T00:10:40.606Z,73470.69
2023-02-28T00:11:14.495Z,73466.69
2023-02-28T00:11:49.361Z,73468.69
2023-02-28T00:12:21.601Z,73472.69
2023-02-28T00:12:55.648Z,73468.69
2023-02-28T00:13:28.054Z,73464.72
2023-02-28T00:14:03.047Z,73464.72
2023-02-28T00:14:35.311Z,73464.72
2023-02-28T00:15:09.649Z,73468.69
2023-02-28T00:15:45.230Z,73462.72
2023-02-28T00:16:19.321Z,73460.72
2023-02-28T00:16:54.260Z,73460.72
2023-02-28T00:17:29.128Z,73456.72
2023-02-28T00:18:01.659Z,73456.72
2023-02-28T00:18:34.271Z,73456.72
2023-02-28T00:19:09.169Z,73456.72
2023-02-28T00:19:41.429Z,73456.72
2023-02-28T00:20:14.489Z,73456.72
2023-02-28T00:20:49.482Z,73456.72
2023-02-28T00:21:22.133Z,73460.72
2023-02-28T00:21:54.484Z,73450.72
2023-02-28T00:22:29.446Z,73452.72
2023-02-28T00:23:01.721Z,73456.72
2023-02-28T00:23:34.724Z,73452.72
2023-02-28T00:24:09.853Z,73448.75
2023-02-28T00:24:42.104Z,73446.75
2023-02-28T00:25:15.713Z,73448.75
2023-02-28T00:25:50.679Z,73452.72
2023-02-28T00:26:23.192Z,73456.72
2023-02-28T00:26:55.656Z,73448.75
2023-02-28T00:27:30.532Z,73446.75
2023-02-28T00:28:02.788Z,73450.72
2023-02-28T00:28:35.044Z,73450.72
2023-02-28T00:29:09.900Z,73450.72
2023-02-28T00:29:42.893Z,73444.75
2023-02-28T00:30:18.475Z,73450.72
2023-02-28T00:30:53.580Z,73440.75
2023-02-28T00:31:26.123Z,73448.75
2023-02-28T00:32:01.366Z,73448.75
2023-02-28T00:32:36.284Z,73450.72
2023-02-28T00:33:08.629Z,73444.75
2023-02-28T00:33:40.920Z,73452.72
2023-02-28T00:34:15.828Z,73444.75
2023-02-28T00:34:48.084Z,73448.75
2023-02-28T00:35:20.862Z,73444.75
2023-02-28T00:35:55.768Z,73448.75
2023-02-28T00:36:28.079Z,73448.75
2023-02-28T00:37:00.324Z,73448.75
2023-02-28T00:37:35.313Z,73444.75
2023-02-28T00:38:07.665Z,73448.75
2023-02-28T00:38:42.454Z,73448.75
2023-02-28T00:39:17.311Z,73452.72
2023-02-28T00:39:49.605Z,73448.75
2023-02-28T00:40:22.138Z,73448.75
2023-02-28T00:40:57.119Z,73452.72
2023-02-28T00:41:30.955Z,73448.75
2023-02-28T00:42:03.931Z,73452.72
2023-02-28T00:42:39.000Z,73456.72
2023-02-28T00:43:11.304Z,73446.75
2023-02-28T00:43:46.203Z,73448.75
2023-02-28T00:44:22.560Z,73452.72
2023-02-28T00:44:55.317Z,73452.72
2023-02-28T00:45:30.218Z,73448.75
2023-02-28T00:46:03.692Z,73452.72
2023-02-28T00:46:36.352Z,73450.72
2023-02-28T00:47:13.861Z,73452.72
2023-02-28T00:47:47.647Z,73446.75
2023-02-28T00:48:20.068Z,73450.72
2023-02-28T00:48:54.904Z,73452.72
2023-02-28T00:49:28.184Z,73444.75
2023-02-28T00:50:01.088Z,73448.75
2023-02-28T00:50:36.650Z,73444.75
2023-02-28T00:51:08.895Z,73450.72
2023-02-28T00:51:41.153Z,73450.72
2023-02-28T00:52:16.080Z,73452.72
2023-02-28T00:52:48.671Z,73444.75
2023-02-28T00:53:20.917Z,73448.75
2023-02-28T00:53:55.763Z,73452.72
2023-02-28T00:54:30.068Z,73448.75
2023-02-28T00:55:02.341Z,73448.75
2023-02-28T00:55:37.241Z,73452.72
2023-02-28T00:56:10.509Z,73454.72
2023-02-28T00:56:42.904Z,73454.72
2023-02-28T00:57:17.766Z,73452.72
2023-02-28T00:57:50.010Z,73462.72
2023-02-28T00:58:22.316Z,73454.72
2023-02-28T00:58:57.182Z,73444.75
2023-02-28T00:59:29.416Z,73456.72
2023-02-28T01:00:01.680Z,73462.72
2023-02-28T01:00:36.546Z,73456.72
2023-02-28T01:01:08.991Z,73452.72
2023-02-28T01:01:43.875Z,73454.72
2023-02-28T01:02:21.559Z,73452.72
2023-02-28T01:02:53.910Z,73452.72
2023-02-28T01:03:31.078Z,73452.72
2023-02-28T01:04:04.755Z,73452.72
2023-02-28T01:04:37.051Z,73460.72
2023-02-28T01:05:12.789Z,73456.72
2023-02-28T01:05:45.637Z,73464.72
2023-02-28T01:06:17.936Z,73462.72
2023-02-28T01:06:52.776Z,73460.72
2023-02-28T01:07:25.040Z,73462.72
2023-02-28T01:07:57.273Z,73468.69
2023-02-28T01:08:32.142Z,73466.69
2023-02-28T01:09:05.360Z,73466.69
2023-02-28T01:09:37.893Z,73464.72
2023-02-28T01:10:14.618Z,73460.72
2023-02-28T01:10:46.905Z,73460.72
2023-02-28T01:11:19.828Z,73464.72
2023-02-28T01:11:54.659Z,73460.72
2023-02-28T01:12:28.824Z,73460.72
2023-02-28T01:13:02.784Z,73456.72
2023-02-28T01:13:37.633Z,73460.72
2023-02-28T01:14:10.308Z,73456.72
2023-02-28T01:14:43.120Z,73464.72
2023-02-28T01:15:15.552Z,73464.72
2023-02-28T01:15:53.850Z,73468.69
2023-02-28T01:16:26.655Z,73460.72
2023-02-28T01:16:58.906Z,73466.69
2023-02-28T01:17:36.411Z,73460.72
2023-02-28T01:18:08.666Z,73456.72
2023-02-28T01:18:41.339Z,73460.72
2023-02-28T01:19:16.578Z,73466.69
2023-02-28T01:19:48.818Z,73464.72
2023-02-28T01:20:21.336Z,73460.72
2023-02-28T01:20:53.714Z,73464.72
2023-02-28T01:21:28.806Z,73464.72
2023-02-28T01:22:02.701Z,73458.72
2023-02-28T01:22:36.160Z,73456.72
2023-02-28T01:23:11.036Z,73468.69
2023-02-28T01:23:43.697Z,73462.72
2023-02-28T01:24:16.440Z,73468.69
2023-02-28T01:24:53.649Z,73462.72
2023-02-28T01:25:25.922Z,73462.72
2023-02-28T01:25:58.343Z,73468.69
2023-02-28T01:26:33.394Z,73468.69
2023-02-28T01:27:05.699Z,73468.69
2023-02-28T01:27:37.991Z,73468.69
2023-02-28T01:28:12.895Z,73472.69
2023-02-28T01:28:45.362Z,73472.69
2023-02-28T01:29:17.725Z,73472.69
2023-02-28T01:29:52.592Z,73474.69
2023-02-28T01:30:24.884Z,73464.72
2023-02-28T01:30:57.171Z,73468.69
2023-02-28T01:31:32.400Z,73464.72
2023-02-28T01:32:05.300Z,73468.69
2023-02-28T01:32:40.160Z,73468.69
2023-02-28T01:33:15.049Z,73464.72
2023-02-28T01:33:47.649Z,73460.72
2023-02-28T01:34:22.992Z,73466.69
2023-02-28T01:34:57.122Z,73464.72
2023-02-28T01:35:29.388Z,73460.72
2023-02-28T01:36:04.706Z,73464.72
2023-02-28T01:36:37.539Z,73458.72
2023-02-28T01:37:09.812Z,73458.72
2023-02-28T01:37:44.649Z,73468.69
2023-02-28T01:38:22.485Z,73464.72
2023-02-28T01:38:55.472Z,73468.69
2023-02-28T01:39:30.491Z,73464.72
2023-02-28T01:40:02.821Z,73458.72
2023-02-28T01:40:35.053Z,73462.72
2023-02-28T01:41:10.674Z,73460.72
2023-02-28T01:41:42.952Z,73462.72
2023-02-28T01:42:15.202Z,73460.72
2023-02-28T01:42:50.044Z,73458.72
2023-02-28T01:43:25.333Z,73458.72
2023-02-28T01:44:00.669Z,73458.72
2023-02-28T01:45:01.423Z,73464.72
2023-02-28T01:45:35.860Z,73460.72
2023-02-28T01:46:09.026Z,73454.72
2023-02-28T01:46:43.944Z,73466.69
2023-02-28T01:47:16.413Z,73464.72
2023-02-28T01:47:52.659Z,73458.72
2023-02-28T01:48:31.477Z,73462.72
2023-02-28T01:49:07.882Z,73470.69
2023-02-28T01:49:40.809Z,73466.69
2023-02-28T01:50:17.877Z,73466.69
2023-02-28T01:50:51.129Z,73462.72
2023-02-28T01:51:28.249Z,73468.69
2023-02-28T01:52:03.269Z,73466.69
2023-02-28T01:52:35.668Z,73468.69
2023-02-28T01:53:10.225Z,73468.69
2023-02-28T01:53:48.138Z,73468.69
2023-02-28T01:54:23.435Z,73466.69
2023-02-28T01:54:57.178Z,73472.69
2023-02-28T01:55:32.323Z,73468.69
2023-02-28T01:56:05.928Z,73462.72
2023-02-28T01:56:38.304Z,73468.69
2023-02-28T01:57:16.399Z,73464.72
2023-02-28T01:57:51.388Z,73460.72
2023-02-28T01:58:23.863Z,73464.72
2023-02-28T01:58:59.281Z,73460.72
2023-02-28T01:59:35.614Z,73460.72
2023-02-28T02:00:15.449Z,73464.72
2023-02-28T02:00:55.232Z,73462.72
2023-02-28T02:01:29.164Z,73460.72
2023-02-28T02:02:02.017Z,73460.72
2023-02-28T02:02:37.653Z,73458.72
2023-02-28T02:03:15.671Z,73456.72
2023-02-28T02:03:49.671Z,73456.72
2023-02-28T02:04:25.942Z,73460.72
2023-02-28T02:05:02.848Z,73452.72
2023-02-28T02:05:35.648Z,73452.72
2023-02-28T02:06:10.654Z,73452.72
2023-02-28T02:06:45.579Z,73456.72
2023-02-28T02:07:17.981Z,73454.72
2023-02-28T02:07:56.557Z,73456.72
2023-02-28T02:08:30.651Z,73452.72
2023-02-28T02:09:03.629Z,73450.72
2023-02-28T02:09:38.478Z,73452.72
2023-02-28T02:10:16.015Z,73452.72
2023-02-28T02:10:52.277Z,73452.72
2023-02-28T02:11:30.995Z,73452.72
2023-02-28T02:12:10.866Z,73452.72
2023-02-28T02:12:58.865Z,73448.75
2023-02-28T02:13:56.313Z,73448.75
2023-02-28T02:14:48.089Z,73452.72
2023-02-28T02:15:26.491Z,73456.72
2023-02-28T02:16:04.201Z,73452.72
2023-02-28T02:16:43.127Z,73452.72
2023-02-28T02:17:25.220Z,73462.72
2023-02-28T02:17:59.625Z,73448.75
2023-02-28T02:18:39.020Z,73448.75
2023-02-28T02:19:30.210Z,73456.72
2023-02-28T02:20:24.016Z,73444.75
2023-02-28T02:21:27.115Z,73444.75
2023-02-28T02:22:27.422Z,73450.72
2023-02-28T02:23:31.543Z,73444.75
2023-02-28T02:24:23.900Z,73444.75
2023-02-28T02:25:27.859Z,73446.75
2023-02-28T02:26:13.304Z,73448.75
2023-02-28T02:27:06.855Z,73450.72
2023-02-28T02:27:54.100Z,73444.75
2023-02-28T02:29:03.972Z,73448.75
2023-02-28T02:30:07.765Z,73444.75
2023-02-28T02:31:14.160Z,73444.75
2023-02-28T02:32:13.746Z,73448.75
2023-02-28T02:33:05.573Z,73448.75
2023-02-28T02:34:19.508Z,73444.75
2023-02-28T02:35:04.119Z,73452.72
2023-02-28T02:35:41.008Z,73452.72
2023-02-28T02:36:18.310Z,73448.75
2023-02-28T02:36:53.375Z,73452.72
2023-02-28T02:37:30.079Z,73456.72
2023-02-28T02:38:12.136Z,73450.72
2023-02-28T02:38:50.453Z,73446.75
2023-02-28T02:39:28.924Z,73448.75
2023-02-28T02:40:06.250Z,73452.72
2023-02-28T02:40:47.577Z,73458.72
2023-02-28T02:41:24.886Z,73452.72
2023-02-28T02:42:01.516Z,73458.72
2023-02-28T02:42:53.437Z,73456.72
2023-02-28T02:43:31.435Z,73460.72
2023-02-28T02:44:07.157Z,73456.72
2023-02-28T02:44:46.560Z,73460.72
2023-02-28T02:45:22.579Z,73460.72
2023-02-28T02:45:57.232Z,73458.72
2023-02-28T02:46:35.185Z,73456.72
2023-02-28T02:47:10.915Z,73460.72
2023-02-28T02:47:45.096Z,73452.72
2023-02-28T02:48:22.898Z,73458.72
2023-02-28T02:48:57.333Z,73460.72
2023-02-28T02:49:32.783Z,73460.72
2023-02-28T02:50:15.154Z,73472.69
2023-02-28T02:50:50.425Z,73460.72
2023-02-28T02:51:23.902Z,73456.72
2023-02-28T02:51:59.505Z,73468.69
2023-02-28T02:52:36.650Z,73468.69
2023-02-28T02:53:11.130Z,73468.69
2023-02-28T02:53:50.547Z,73476.69
2023-02-28T02:54:29.849Z,73484.66
2023-02-28T02:55:04.014Z,73480.69
2023-02-28T02:55:42.720Z,73480.69
2023-02-28T02:56:15.632Z,73488.66
2023-02-28T02:56:49.705Z,73500.63
2023-02-28T02:57:25.725Z,73496.66
2023-02-28T02:58:03.002Z,73504.63
2023-02-28T02:58:43.066Z,73500.63
2023-02-28T02:59:22.529Z,73502.63
2023-02-28T02:59:59.067Z,73508.63
2023-02-28T03:00:34.066Z,73516.59
2023-02-28T03:01:06.541Z,73516.59
2023-02-28T03:01:42.245Z,73520.59
2023-02-28T03:02:16.017Z,73524.59
2023-02-28T03:02:49.259Z,73520.59
2023-02-28T03:03:30.144Z,73532.59
2023-02-28T03:04:04.451Z,73536.56
2023-02-28T03:04:42.094Z,73532.59
2023-02-28T03:05:23.376Z,73536.56
2023-02-28T03:05:56.950Z,73540.56
2023-02-28T03:06:29.283Z,73544.56
2023-02-28T03:07:04.241Z,73548.56
2023-02-28T03:07:36.552Z,73544.56
2023-02-28T03:08:08.808Z,73548.56
2023-02-28T03:08:43.682Z,73548.56
2023-02-28T03:09:15.921Z,73548.56
2023-02-28T03:09:52.970Z,73548.56
2023-02-28T03:10:47.292Z,73552.53
2023-02-28T03:11:22.889Z,73556.53
2023-02-28T03:11:57.218Z,73556.53
2023-02-28T03:12:36.781Z,73560.53
2023-02-28T03:13:21.464Z,73560.53
2023-02-28T03:14:00.735Z,73560.53
2023-02-28T03:14:47.671Z,73564.53
2023-02-28T03:15:26.065Z,73560.53
2023-02-28T03:16:19.237Z,73560.53
2023-02-28T03:17:04.169Z,73556.53
2023-02-28T03:17:54.896Z,73564.53
2023-02-28T03:18:32.336Z,73566.53
2023-02-28T03:19:17.085Z,73566.53
2023-02-28T03:19:55.124Z,73568.50
2023-02-28T03:20:38.122Z,73562.53
2023-02-28T03:21:18.758Z,73560.53
2023-02-28T03:21:58.474Z,73566.53
2023-02-28T03:22:53.490Z,73564.53
2023-02-28T03:23:31.279Z,73564.53
2023-02-28T03:24:09.475Z,73568.50
2023-02-28T03:24:46.427Z,73564.53
2023-02-28T03:25:28.888Z,73566.53
2023-02-28T03:26:08.170Z,73568.50
2023-02-28T03:26:43.265Z,73566.53
2023-02-28T03:27:18.731Z,73576.50
2023-02-28T03:27:59.365Z,73572.50
2023-02-28T03:28:38.271Z,73568.50
2023-02-28T03:29:18.352Z,73570.50
2023-02-28T03:29:53.470Z,73570.50
2023-02-28T03:30:31.771Z,73572.50
2023-02-28T03:31:10.246Z,73570.50
2023-02-28T03:31:46.223Z,73570.50
2023-02-28T03:32:26.006Z,73582.50
2023-02-28T03:33:00.100Z,73580.50
2023-02-28T03:33:36.005Z,73580.50
2023-02-28T03:34:13.142Z,73584.50
2023-02-28T03:34:49.479Z,73584.50
2023-02-28T03:35:24.863Z,73580.50
2023-02-28T03:36:05.552Z,73576.50
2023-02-28T03:36:45.023Z,73580.50
2023-02-28T03:37:21.402Z,73580.50
2023-02-28T03:37:59.483Z,73584.50
2023-02-28T03:38:35.988Z,73584.50
2023-02-28T03:39:09.900Z,73592.47
2023-02-28T03:39:47.876Z,73588.47
2023-02-28T03:40:23.260Z,73592.47
2023-02-28T03:41:00.967Z,73592.47
2023-02-28T03:41:40.033Z,73596.47
2023-02-28T03:42:15.231Z,73596.47
2023-02-28T03:42:49.727Z,73598.47
2023-02-28T03:43:29.013Z,73596.47
2023-02-28T03:44:05.268Z,73600.47
2023-02-28T03:44:41.245Z,73604.44
2023-02-28T03:45:19.031Z,73604.44
2023-02-28T03:45:52.482Z,73600.47
2023-02-28T03:46:26.488Z,73608.44
2023-02-28T03:47:03.699Z,73592.47
2023-02-28T03:47:39.081Z,73608.44
2023-02-28T03:48:14.702Z,73604.44
2023-02-28T03:48:53.245Z,73608.44
2023-02-28T03:49:28.201Z,73612.44
2023-02-28T03:50:04.304Z,73600.47
2023-02-28T03:50:42.153Z,73606.44
2023-02-28T03:51:19.106Z,73618.44
2023-02-28T03:51:51.973Z,73614.44
2023-02-28T03:52:30.997Z,73612.44
2023-02-28T03:53:12.501Z,73604.44
2023-02-28T03:53:47.222Z,73610.44
2023-02-28T03:54:25.267Z,73612.44
2023-02-28T03:55:01.700Z,73610.44
2023-02-28T03:55:39.604Z,73612.44
2023-02-28T03:56:18.919Z,73612.44
2023-02-28T03:56:54.216Z,73608.44
2023-02-28T03:57:29.190Z,73612.44
2023-02-28T03:58:09.144Z,73608.44
2023-02-28T03:58:44.366Z,73610.44
2023-02-28T03:59:23.302Z,73608.44
2023-02-28T03:59:58.115Z,73612.44
2023-02-28T04:00:35.822Z,73616.44
2023-02-28T04:01:10.598Z,73616.44
2023-02-28T04:01:44.903Z,73620.41
2023-02-28T04:02:19.828Z,73612.44
2023-02-28T04:02:54.153Z,73616.44
2023-02-28T04:03:26.657Z,73618.44
2023-02-28T04:04:01.729Z,73622.41
2023-02-28T04:04:34.008Z,73622.41
2023-02-28T04:05:06.856Z,73620.41
2023-02-28T04:05:53.130Z,73620.41
2023-02-28T04:06:28.305Z,73624.41
2023-02-28T04:07:05.300Z,73624.41
2023-02-28T04:07:40.139Z,73622.41
2023-02-28T04:08:12.369Z,73626.41
2023-02-28T04:08:45.067Z,73624.41
2023-02-28T04:09:20.025Z,73628.41
2023-02-28T04:09:53.308Z,73624.41
2023-02-28T04:10:25.591Z,73628.41
2023-02-28T04:11:03.986Z,73622.41
2023-02-28T04:11:38.586Z,73620.41
2023-02-28T04:12:10.993Z,73620.41
2023-02-28T04:12:45.849Z,73616.44
2023-02-28T04:13:18.094Z,73620.41
2023-02-28T04:13:50.415Z,73616.44
2023-02-28T04:14:25.477Z,73616.44
2023-02-28T04:14:57.727Z,73620.41
2023-02-28T04:15:30.004Z,73624.41
2023-02-28T04:16:18.785Z,73616.44
2023-02-28T04:16:56.945Z,73612.44
2023-02-28T04:17:31.806Z,73618.44
2023-02-28T04:18:04.177Z,73612.44
2023-02-28T04:18:36.509Z,73616.44
2023-02-28T04:19:12.728Z,73614.44
2023-02-28T04:19:45.240Z,73614.44
2023-02-28T04:20:17.856Z,73616.44
2023-02-28T04:20:52.744Z,73616.44
2023-02-28T04:21:28.120Z,73610.44
2023-02-28T04:22:03.033Z,73620.41
2023-02-28T04:22:35.256Z,73618.44
2023-02-28T04:23:07.557Z,73616.44
2023-02-28T04:23:42.509Z,73616.44
2023-02-28T04:24:17.502Z,73620.41
2023-02-28T04:24:52.369Z,73620.41
2023-02-28T04:25:24.624Z,73616.44
2023-02-28T04:25:57.073Z,73612.44
2023-02-28T04:26:31.026Z,73616.44
2023-02-28T04:27:06.673Z,73614.44
2023-02-28T04:27:38.968Z,73618.44
2023-02-28T04:28:11.215Z,73616.44
2023-02-28T04:28:46.078Z,73616.44
2023-02-28T04:29:21.434Z,73616.44
2023-02-28T04:29:53.683Z,73612.44
2023-02-28T04:30:28.538Z,73616.44
2023-02-28T04:31:02.891Z,73616.44
2023-02-28T04:31:35.434Z,73620.41
2023-02-28T04:32:10.433Z,73610.44
2023-02-28T04:32:42.770Z,73610.44
2023-02-28T04:33:15.066Z,73614.44
2023-02-28T04:33:49.959Z,73612.44
2023-02-28T04:34:22.697Z,73606.44
2023-02-28T04:34:54.976Z,73612.44
2023-02-28T04:35:29.847Z,73608.44
2023-02-28T04:36:03.837Z,73608.44
2023-02-28T04:36:38.696Z,73608.44
2023-02-28T04:37:14.419Z,73614.44
2023-02-28T04:37:46.797Z,73612.44
2023-02-28T04:38:19.054Z,73608.44
2023-02-28T04:38:53.979Z,73614.44
2023-02-28T04:39:26.270Z,73606.44
2023-02-28T04:39:58.507Z,73614.44
2023-02-28T04:40:33.366Z,73616.44
2023-02-28T04:41:06.321Z,73612.44
2023-02-28T04:41:38.763Z,73612.44
2023-02-28T04:42:14.472Z,73616.44
2023-02-28T04:42:46.719Z,73614.44
2023-02-28T04:43:18.983Z,73614.44
2023-02-28T04:43:54.988Z,73608.44
2023-02-28T04:44:27.261Z,73614.44
2023-02-28T04:44:59.483Z,73616.44
2023-02-28T04:45:35.144Z,73616.44
2023-02-28T04:46:07.863Z,73620.41
2023-02-28T04:46:40.294Z,73612.44
2023-02-28T04:47:15.180Z,73610.44
2023-02-28T04:47:47.426Z,73608.44
2023-02-28T04:48:22.154Z,73612.44
2023-02-28T04:48:57.347Z,73616.44
2023-02-28T04:49:29.563Z,73616.44
2023-02-28T04:50:01.805Z,73620.41
2023-02-28T04:50:36.673Z,73616.44
2023-02-28T04:51:10.920Z,73612.44
2023-02-28T04:51:45.819Z,73612.44
2023-02-28T04:52:20.812Z,73618.44
2023-02-28T04:52:53.042Z,73608.44
2023-02-28T04:53:25.402Z,73616.44
2023-02-28T04:54:00.340Z,73612.44
2023-02-28T04:54:32.576Z,73608.44
2023-02-28T04:55:06.640Z,73612.44
2023-02-28T04:55:41.958Z,73612.44
2023-02-28T04:56:15.906Z,73610.44
2023-02-28T04:56:50.902Z,73604.44
2023-02-28T04:57:25.835Z,73610.44
2023-02-28T04:57:58.937Z,73614.44
2023-02-28T04:58:31.582Z,73610.44
2023-02-28T04:59:06.545Z,73604.44
2023-02-28T04:59:38.783Z,73612.44
2023-02-28T05:00:12.718Z,73612.44
2023-02-28T05:00:47.584Z,73612.44
2023-02-28T05:01:23.698Z,73608.44
2023-02-28T05:01:55.969Z,73612.44
2023-02-28T05:02:30.892Z,73612.44
2023-02-28T05:03:03.166Z,73608.44
2023-02-28T05:03:35.463Z,73606.44
2023-02-28T05:04:10.577Z,73604.44
2023-02-28T05:04:42.853Z,73600.47
2023-02-28T05:05:19.225Z,73596.47
2023-02-28T05:05:54.067Z,73608.44
2023-02-28T05:06:28.345Z,73602.47
2023-02-28T05:07:04.285Z,73600.47
2023-02-28T05:07:39.285Z,73600.47
2023-02-28T05:08:12.531Z,73600.47
2023-02-28T05:08:45.026Z,73596.47
2023-02-28T05:09:19.869Z,73604.44
2023-02-28T05:09:52.095Z,73596.47
2023-02-28T05:10:24.428Z,73596.47
2023-02-28T05:10:56.652Z,73598.47
2023-02-28T05:11:36.045Z,73596.47
2023-02-28T05:12:10.126Z,73600.47
2023-02-28T05:12:42.434Z,73596.47
2023-02-28T05:13:17.285Z,73596.47
2023-02-28T05:13:49.905Z,73596.47
2023-02-28T05:14:22.467Z,73592.47
2023-02-28T05:14:57.359Z,73594.47
2023-02-28T05:15:29.635Z,73592.47
2023-02-28T05:16:01.917Z,73592.47
2023-02-28T05:16:37.019Z,73586.47
2023-02-28T05:17:10.178Z,73588.47
2023-02-28T05:17:42.547Z,73588.47
2023-02-28T05:18:17.460Z,73588.47
2023-02-28T05:18:49.859Z,73586.47
2023-02-28T05:19:25.130Z,73582.50
2023-02-28T05:20:09.768Z,73584.50
2023-02-28T05:20:50.120Z,73578.50
2023-02-28T05:21:28.880Z,73582.50
2023-02-28T05:22:03.921Z,73578.50
2023-02-28T05:22:38.769Z,73570.50
2023-02-28T05:23:12.918Z,73580.50
2023-02-28T05:23:46.422Z,73570.50
2023-02-28T05:24:24.573Z,73572.50
2023-02-28T05:24:56.804Z,73572.50
2023-02-28T05:25:30.229Z,73580.50
2023-02-28T05:26:02.459Z,73576.50
2023-02-28T05:26:38.773Z,73572.50
2023-02-28T05:27:11.569Z,73566.53
2023-02-28T05:27:43.816Z,73568.50
2023-02-28T05:28:18.748Z,73572.50
2023-02-28T05:28:51.080Z,73572.50
2023-02-28T05:29:23.518Z,73564.53
2023-02-28T05:29:58.368Z,73580.50
2023-02-28T05:30:31.120Z,73580.50
2023-02-28T05:31:03.388Z,73572.50
2023-02-28T05:31:38.537Z,73568.50
2023-02-28T05:32:12.083Z,73568.50
2023-02-28T05:32:44.394Z,73580.50
2023-02-28T05:33:19.242Z,73568.50
2023-02-28T05:33:52.520Z,73566.53
2023-02-28T05:34:27.409Z,73572.50
2023-02-28T05:34:59.640Z,73576.50
2023-02-28T05:35:31.892Z,73568.50
2023-02-28T05:36:07.401Z,73572.50
2023-02-28T05:36:40.019Z,73580.50
2023-02-28T05:37:16.862Z,73562.53
2023-02-28T05:37:51.720Z,73564.53
2023-02-28T05:38:24.352Z,73570.50
2023-02-28T05:38:56.597Z,73566.53
2023-02-28T05:39:31.429Z,73566.53
2023-02-28T05:40:07.076Z,73568.50
2023-02-28T05:40:40.355Z,73570.50
2023-02-28T05:41:15.400Z,73570.50
2023-02-28T05:41:47.660Z,73564.53
2023-02-28T05:42:19.912Z,73562.53
2023-02-28T05:42:54.944Z,73570.50
2023-02-28T05:43:27.234Z,73564.53
2023-02-28T05:44:00.776Z,73560.53
2023-02-28T05:44:35.658Z,73568.50
2023-02-28T05:45:09.791Z,73564.53
2023-02-28T05:45:42.061Z,73566.53
2023-02-28T05:46:17.101Z,73568.50
2023-02-28T05:46:49.343Z,73568.50
2023-02-28T05:47:21.670Z,73568.50
2023-02-28T05:47:57.724Z,73570.50
2023-02-28T05:48:29.964Z,73568.50
2023-02-28T05:49:02.683Z,73568.50
2023-02-28T05:49:37.591Z,73572.50
2023-02-28T05:50:11.719Z,73572.50
2023-02-28T05:50:47.214Z,73578.50
2023-02-28T05:51:19.488Z,73568.50
2023-02-28T05:51:54.594Z,73564.53
2023-02-28T05:52:31.030Z,73564.53
2023-02-28T05:53:03.409Z,73570.50
2023-02-28T05:53:38.744Z,73568.50
2023-02-28T05:54:13.509Z,73570.50
2023-02-28T05:54:47.584Z,73576.50
2023-02-28T05:55:22.477Z,73564.53
2023-02-28T05:55:54.858Z,73562.53
2023-02-28T05:56:27.128Z,73570.50
2023-02-28T05:57:01.964Z,73570.50
2023-02-28T05:57:34.205Z,73576.50
2023-02-28T05:58:06.461Z,73566.53
2023-02-28T05:58:41.288Z,73564.53
2023-02-28T05:59:13.867Z,73568.50
2023-02-28T05:59:48.679Z,73570.50
2023-02-28T06:00:21.621Z,73564.53
2023-02-28T06:00:53.878Z,73570.50
2023-02-28T06:01:37.019Z,73568.50
2023-02-28T06:02:13.796Z,73572.50
2023-02-28T06:02:46.133Z,73568.50
2023-02-28T06:03:21.024Z,73564.53
2023-02-28T06:03:53.304Z,73568.50
2023-02-28T06:04:31.777Z,73566.53
2023-02-28T06:05:07.294Z,73568.50
2023-02-28T06:05:39.741Z,73568.50
2023-02-28T06:06:11.978Z,73564.53
2023-02-28T06:06:46.821Z,73572.50
2023-02-28T06:07:19.046Z,73568.50
2023-02-28T06:07:53.886Z,73564.53
2023-02-28T06:08:28.770Z,73564.53
2023-02-28T06:09:01.756Z,73560.53
2023-02-28T06:09:36.617Z,73560.53
2023-02-28T06:10:10.562Z,73566.53
2023-02-28T06:10:42.853Z,73562.53
2023-02-28T06:11:17.780Z,73564.53
2023-02-28T06:11:50.053Z,73566.53
2023-02-28T06:12:22.290Z,73560.53
2023-02-28T06:12:57.136Z,73568.50
2023-02-28T06:13:29.400Z,73566.53
2023-02-28T06:14:02.782Z,73562.53
2023-02-28T06:14:38.191Z,73570.50
2023-02-28T06:15:13.743Z,73568.50
2023-02-28T06:15:45.973Z,73572.50
2023-02-28T06:16:20.849Z,73564.53
2023-02-28T06:16:53.496Z,73564.53
2023-02-28T06:17:25.833Z,73566.53
2023-02-28T06:18:00.825Z,73568.50
2023-02-28T06:18:33.424Z,73564.53
2023-02-28T06:19:08.351Z,73564.53
2023-02-28T06:19:42.338Z,73566.53
2023-02-28T06:20:15.272Z,73562.53
2023-02-28T06:20:56.882Z,73568.50
2023-02-28T06:21:29.961Z,73576.50
2023-02-28T06:22:05.569Z,73582.50
2023-02-28T06:22:38.246Z,73582.50
2023-02-28T06:23:13.104Z,73580.50
2023-02-28T06:23:45.460Z,73580.50
2023-02-28T06:24:20.336Z,73580.50
2023-02-28T06:24:53.817Z,73578.50
2023-02-28T06:25:26.101Z,73580.50
2023-02-28T06:26:01.556Z,73580.50
2023-02-28T06:26:33.954Z,73584.50
2023-02-28T06:27:08.907Z,73582.50
2023-02-28T06:27:41.161Z,73580.50
2023-02-28T06:28:13.413Z,73584.50
2023-02-28T06:28:48.295Z,73584.50
2023-02-28T06:29:20.569Z,73580.50
2023-02-28T06:29:56.180Z,73584.50
2023-02-28T06:30:34.848Z,73584.50
2023-02-28T06:31:08.870Z,73580.50
2023-02-28T06:31:41.208Z,73592.47
2023-02-28T06:32:16.176Z,73588.47
2023-02-28T06:32:50.610Z,73586.47
2023-02-28T06:33:22.869Z,73584.50
2023-02-28T06:33:57.702Z,73580.50
2023-02-28T06:34:30.018Z,73586.47
2023-02-28T06:35:04.843Z,73588.47
2023-02-28T06:35:37.149Z,73588.47
2023-02-28T06:36:10.969Z,73582.50
2023-02-28T06:36:46.373Z,73588.47
2023-02-28T06:37:18.819Z,73590.47
2023-02-28T06:37:51.064Z,73590.47
2023-02-28T06:38:25.978Z,73588.47
2023-02-28T06:39:00.805Z,73592.47
2023-02-28T06:39:33.146Z,73592.47
2023-02-28T06:40:08.020Z,73592.47
2023-02-28T06:40:42.857Z,73588.47
2023-02-28T06:41:15.121Z,73592.47
2023-02-28T06:41:55.477Z,73590.47
2023-02-28T06:42:32.027Z,73588.47
2023-02-28T06:43:04.457Z,73594.47
2023-02-28T06:43:38.787Z,73596.47
2023-02-28T06:44:16.340Z,73590.47
2023-02-28T06:44:48.627Z,73596.47
2023-02-28T06:45:21.068Z,73592.47
2023-02-28T06:45:58.249Z,73588.47
2023-02-28T06:46:30.620Z,73592.47
2023-02-28T06:47:04.299Z,73596.47
2023-02-28T06:47:39.366Z,73592.47
2023-02-28T06:48:11.706Z,73596.47
2023-02-28T06:48:48.178Z,73586.47
2023-02-28T06:49:20.464Z,73588.47
2023-02-28T06:49:55.338Z,73584.50
2023-02-28T06:50:29.521Z,73578.50
2023-02-28T06:51:09.577Z,73572.50
2023-02-28T06:51:44.363Z,73572.50
2023-02-28T06:52:19.618Z,73572.50
2023-02-28T06:52:55.074Z,73556.53
2023-02-28T06:53:32.545Z,73556.53
2023-02-28T06:54:05.567Z,73548.56
2023-02-28T06:54:40.691Z,73540.56
2023-02-28T06:55:12.925Z,73538.56
2023-02-28T06:55:45.192Z,73524.59
2023-02-28T06:56:21.933Z,73520.59
2023-02-28T06:56:55.427Z,73516.59
2023-02-28T06:57:31.974Z,73506.63